sensor_id;sensor_type;location;lat;lon;timestamp;P1;durP1;ratioP1;P2;durP2;ratioP2
36303;SDS011;22335;49.800;8.596;2023-05-07T00:02:19;6.18;;;4.80;;
36303;SDS011;22335;49.800;8.596;2023-05-07T00:15:47;5.63;;;5.13;;
36303;SDS011;22335;49.800;8.596;2023-05-07T00:22:32;6.45;;;5.85;;
36303;SDS011;22335;49.800;8.596;2023-05-07T00:29:15;5.60;;;5.10;;
36303;SDS011;22335;49.800;8.596;2023-05-07T00:35:59;5.38;;;4.95;;
36303;SDS011;22335;49.800;8.596;2023-05-07T00:42:44;6.07;;;5.55;;
36303;SDS011;22335;49.800;8.596;2023-05-07T00:49:33;5.78;;;5.13;;
36303;SDS011;22335;49.800;8.596;2023-05-07T00:56:22;6.32;;;5.50;;
36303;SDS011;22335;49.800;8.596;2023-05-07T01:03:07;5.57;;;5.15;;
36303;SDS011;22335;49.800;8.596;2023-05-07T01:09:51;5.63;;;5.20;;
36303;SDS011;22335;49.800;8.596;2023-05-07T01:16:35;6.03;;;5.35;;
36303;SDS011;22335;49.800;8.596;2023-05-07T01:23:21;5.80;;;5.28;;
36303;SDS011;22335;49.800;8.596;2023-05-07T01:30:06;5.95;;;5.55;;
36303;SDS011;22335;49.800;8.596;2023-05-07T01:36:50;5.28;;;4.97;;
36303;SDS011;22335;49.800;8.596;2023-05-07T01:43:37;5.45;;;5.15;;
36303;SDS011;22335;49.800;8.596;2023-05-07T01:50:23;5.63;;;5.22;;
36303;SDS011;22335;49.800;8.596;2023-05-07T01:57:06;6.13;;;5.53;;
36303;SDS011;22335;49.800;8.596;2023-05-07T02:03:52;5.63;;;5.13;;
36303;SDS011;22335;49.800;8.596;2023-05-07T02:10:39;5.80;;;5.32;;
36303;SDS011;22335;49.800;8.596;2023-05-07T02:17:23;6.38;;;5.78;;
36303;SDS011;22335;49.800;8.596;2023-05-07T02:24:09;6.72;;;5.47;;
36303;SDS011;22335;49.800;8.596;2023-05-07T02:30:54;6.75;;;6.25;;
36303;SDS011;22335;49.800;8.596;2023-05-07T02:37:40;6.27;;;5.67;;
36303;SDS011;22335;49.800;8.596;2023-05-07T02:44:25;5.75;;;5.35;;
36303;SDS011;22335;49.800;8.596;2023-05-07T03:06:12;7.97;;;7.18;;
36303;SDS011;22335;49.800;8.596;2023-05-07T03:12:55;6.30;;;5.90;;
36303;SDS011;22335;49.800;8.596;2023-05-07T03:19:40;8.88;;;8.18;;
36303;SDS011;22335;49.800;8.596;2023-05-07T03:26:25;5.97;;;4.85;;
36303;SDS011;22335;49.800;8.596;2023-05-07T03:33:09;5.37;;;4.97;;
36303;SDS011;22335;49.800;8.596;2023-05-07T03:39:52;5.75;;;5.38;;
36303;SDS011;22335;49.800;8.596;2023-05-07T03:46:38;5.60;;;5.20;;
36303;SDS011;22335;49.800;8.596;2023-05-07T03:53:25;6.00;;;5.40;;
36303;SDS011;22335;49.800;8.596;2023-05-07T04:00:09;5.60;;;5.20;;
36303;SDS011;22335;49.800;8.596;2023-05-07T04:07:13;6.00;;;5.50;;
36303;SDS011;22335;49.800;8.596;2023-05-07T04:14:02;5.80;;;5.40;;
36303;SDS011;22335;49.800;8.596;2023-05-07T04:20:45;5.75;;;5.35;;
36303;SDS011;22335;49.800;8.596;2023-05-07T04:27:31;5.88;;;5.38;;
36303;SDS011;22335;49.800;8.596;2023-05-07T04:34:15;5.50;;;5.10;;
36303;SDS011;22335;49.800;8.596;2023-05-07T04:41:02;5.25;;;4.75;;
36303;SDS011;22335;49.800;8.596;2023-05-07T04:47:52;4.55;;;4.28;;
36303;SDS011;22335;49.800;8.596;2023-05-07T04:54:36;4.70;;;4.40;;
36303;SDS011;22335;49.800;8.596;2023-05-07T05:01:21;4.80;;;4.30;;
36303;SDS011;22335;49.800;8.596;2023-05-07T05:08:05;4.30;;;4.10;;
36303;SDS011;22335;49.800;8.596;2023-05-07T05:14:52;4.80;;;4.45;;
36303;SDS011;22335;49.800;8.596;2023-05-07T05:21:36;4.80;;;4.40;;
36303;SDS011;22335;49.800;8.596;2023-05-07T05:28:24;4.45;;;4.10;;
36303;SDS011;22335;49.800;8.596;2023-05-07T05:41:53;4.80;;;4.40;;
36303;SDS011;22335;49.800;8.596;2023-05-07T05:48:38;4.88;;;4.47;;
36303;SDS011;22335;49.800;8.596;2023-05-07T05:55:24;5.18;;;4.68;;
36303;SDS011;22335;49.800;8.596;2023-05-07T06:02:08;5.70;;;5.03;;
36303;SDS011;22335;49.800;8.596;2023-05-07T06:08:53;4.88;;;4.57;;
36303;SDS011;22335;49.800;8.596;2023-05-07T06:15:43;4.65;;;4.35;;
36303;SDS011;22335;49.800;8.596;2023-05-07T06:22:27;6.45;;;5.80;;
36303;SDS011;22335;49.800;8.596;2023-05-07T06:29:12;4.82;;;4.53;;
36303;SDS011;22335;49.800;8.596;2023-05-07T06:35:56;6.00;;;5.43;;
36303;SDS011;22335;49.800;8.596;2023-05-07T06:42:41;5.65;;;5.25;;
36303;SDS011;22335;49.800;8.596;2023-05-07T06:49:39;4.97;;;4.60;;
36303;SDS011;22335;49.800;8.596;2023-05-07T06:56:23;8.27;;;7.63;;
36303;SDS011;22335;49.800;8.596;2023-05-07T07:03:07;5.40;;;5.00;;
36303;SDS011;22335;49.800;8.596;2023-05-07T07:09:52;6.70;;;6.10;;
36303;SDS011;22335;49.800;8.596;2023-05-07T07:16:36;5.63;;;5.23;;
36303;SDS011;22335;49.800;8.596;2023-05-07T07:23:20;5.53;;;5.10;;
36303;SDS011;22335;49.800;8.596;2023-05-07T07:30:05;6.53;;;5.95;;
36303;SDS011;22335;49.800;8.596;2023-05-07T07:36:52;5.88;;;5.47;;
36303;SDS011;22335;49.800;8.596;2023-05-07T07:43:37;7.28;;;6.65;;
36303;SDS011;22335;49.800;8.596;2023-05-07T07:50:22;5.63;;;5.22;;
36303;SDS011;22335;49.800;8.596;2023-05-07T07:57:12;6.18;;;5.65;;
36303;SDS011;22335;49.800;8.596;2023-05-07T08:03:56;6.47;;;6.07;;
36303;SDS011;22335;49.800;8.596;2023-05-07T08:10:42;6.13;;;5.70;;
36303;SDS011;22335;49.800;8.596;2023-05-07T08:17:33;5.38;;;4.97;;
36303;SDS011;22335;49.800;8.596;2023-05-07T08:24:17;5.57;;;5.18;;
36303;SDS011;22335;49.800;8.596;2023-05-07T08:31:02;5.63;;;5.13;;
36303;SDS011;22335;49.800;8.596;2023-05-07T08:37:50;5.60;;;5.10;;
36303;SDS011;22335;49.800;8.596;2023-05-07T08:44:34;6.20;;;5.70;;
36303;SDS011;22335;49.800;8.596;2023-05-07T08:51:19;5.93;;;5.53;;
36303;SDS011;22335;49.800;8.596;2023-05-07T08:58:05;9.45;;;8.85;;
36303;SDS011;22335;49.800;8.596;2023-05-07T09:04:52;5.85;;;5.35;;
36303;SDS011;22335;49.800;8.596;2023-05-07T09:11:38;5.65;;;5.20;;
36303;SDS011;22335;49.800;8.596;2023-05-07T09:18:23;6.05;;;5.60;;
36303;SDS011;22335;49.800;8.596;2023-05-07T09:25:08;5.68;;;5.28;;
36303;SDS011;22335;49.800;8.596;2023-05-07T09:31:55;5.40;;;5.00;;
36303;SDS011;22335;49.800;8.596;2023-05-07T09:38:39;5.90;;;5.43;;
36303;SDS011;22335;49.800;8.596;2023-05-07T09:45:24;5.25;;;4.95;;
36303;SDS011;22335;49.800;8.596;2023-05-07T09:52:10;5.65;;;5.25;;
36303;SDS011;22335;49.800;8.596;2023-05-07T09:59:01;5.90;;;5.50;;
36303;SDS011;22335;49.800;8.596;2023-05-07T10:05:47;6.50;;;5.88;;
36303;SDS011;22335;49.800;8.596;2023-05-07T10:12:35;5.90;;;5.40;;
36303;SDS011;22335;49.800;8.596;2023-05-07T10:19:25;5.88;;;5.43;;
36303;SDS011;22335;49.800;8.596;2023-05-07T10:26:11;5.50;;;5.10;;
36303;SDS011;22335;49.800;8.596;2023-05-07T10:32:58;5.60;;;5.20;;
36303;SDS011;22335;49.800;8.596;2023-05-07T10:39:48;5.75;;;5.35;;
36303;SDS011;22335;49.800;8.596;2023-05-07T10:46:33;5.30;;;5.00;;
36303;SDS011;22335;49.800;8.596;2023-05-07T10:53:38;5.93;;;5.50;;
36303;SDS011;22335;49.800;8.596;2023-05-07T11:00:41;5.57;;;5.07;;
36303;SDS011;22335;49.800;8.596;2023-05-07T11:07:33;5.97;;;5.28;;
36303;SDS011;22335;49.800;8.596;2023-05-07T11:14:45;5.18;;;4.70;;
36303;SDS011;22335;49.800;8.596;2023-05-07T11:21:36;5.40;;;5.00;;
36303;SDS011;22335;49.800;8.596;2023-05-07T11:28:38;5.60;;;4.80;;
36303;SDS011;22335;49.800;8.596;2023-05-07T11:35:24;5.55;;;5.05;;
36303;SDS011;22335;49.800;8.596;2023-05-07T11:42:21;5.45;;;5.10;;
36303;SDS011;22335;49.800;8.596;2023-05-07T11:49:09;4.95;;;4.55;;
36303;SDS011;22335;49.800;8.596;2023-05-07T11:55:54;5.47;;;4.85;;
36303;SDS011;22335;49.800;8.596;2023-05-07T12:09:23;4.63;;;4.32;;
36303;SDS011;22335;49.800;8.596;2023-05-07T12:16:07;4.47;;;4.00;;
36303;SDS011;22335;49.800;8.596;2023-05-07T12:22:52;4.85;;;4.43;;
36303;SDS011;22335;49.800;8.596;2023-05-07T12:29:37;5.18;;;4.78;;
36303;SDS011;22335;49.800;8.596;2023-05-07T12:36:23;4.55;;;4.25;;
36303;SDS011;22335;49.800;8.596;2023-05-07T12:43:07;4.90;;;4.43;;
36303;SDS011;22335;49.800;8.596;2023-05-07T12:49:57;4.88;;;4.47;;
36303;SDS011;22335;49.800;8.596;2023-05-07T12:56:42;4.60;;;4.20;;
36303;SDS011;22335;49.800;8.596;2023-05-07T13:10:10;4.88;;;4.57;;
36303;SDS011;22335;49.800;8.596;2023-05-07T13:16:55;5.13;;;4.55;;
36303;SDS011;22335;49.800;8.596;2023-05-07T13:23:38;4.25;;;3.95;;
36303;SDS011;22335;49.800;8.596;2023-05-07T13:30:22;4.63;;;4.00;;
36303;SDS011;22335;49.800;8.596;2023-05-07T13:37:07;5.00;;;4.20;;
36303;SDS011;22335;49.800;8.596;2023-05-07T13:43:52;4.20;;;3.90;;
36303;SDS011;22335;49.800;8.596;2023-05-07T13:50:35;4.50;;;4.07;;
36303;SDS011;22335;49.800;8.596;2023-05-07T13:57:20;4.88;;;4.38;;
36303;SDS011;22335;49.800;8.596;2023-05-07T14:04:03;4.70;;;4.30;;
36303;SDS011;22335;49.800;8.596;2023-05-07T14:10:47;4.25;;;3.95;;
36303;SDS011;22335;49.800;8.596;2023-05-07T14:17:32;5.20;;;4.80;;
36303;SDS011;22335;49.800;8.596;2023-05-07T14:24:15;4.60;;;4.22;;
36303;SDS011;22335;49.800;8.596;2023-05-07T14:31:04;4.60;;;4.20;;
36303;SDS011;22335;49.800;8.596;2023-05-07T14:37:49;4.65;;;4.32;;
36303;SDS011;22335;49.800;8.596;2023-05-07T14:44:33;4.53;;;4.22;;
36303;SDS011;22335;49.800;8.596;2023-05-07T14:51:16;4.70;;;4.25;;
36303;SDS011;22335;49.800;8.596;2023-05-07T14:58:01;4.18;;;3.53;;
36303;SDS011;22335;49.800;8.596;2023-05-07T15:04:45;4.35;;;4.05;;
36303;SDS011;22335;49.800;8.596;2023-05-07T15:11:28;7.15;;;4.80;;
36303;SDS011;22335;49.800;8.596;2023-05-07T15:18:13;4.38;;;4.07;;
36303;SDS011;22335;49.800;8.596;2023-05-07T15:31:41;4.70;;;4.22;;
36303;SDS011;22335;49.800;8.596;2023-05-07T15:38:26;6.13;;;4.07;;
36303;SDS011;22335;49.800;8.596;2023-05-07T15:45:10;3.85;;;3.40;;
36303;SDS011;22335;49.800;8.596;2023-05-07T15:51:54;4.38;;;3.97;;
36303;SDS011;22335;49.800;8.596;2023-05-07T15:58:39;4.20;;;3.90;;
36303;SDS011;22335;49.800;8.596;2023-05-07T16:05:23;4.20;;;3.90;;
36303;SDS011;22335;49.800;8.596;2023-05-07T16:12:06;5.03;;;4.63;;
36303;SDS011;22335;49.800;8.596;2023-05-07T16:18:51;5.00;;;4.65;;
36303;SDS011;22335;49.800;8.596;2023-05-07T16:25:35;5.47;;;5.00;;
36303;SDS011;22335;49.800;8.596;2023-05-07T16:32:18;5.28;;;4.88;;
36303;SDS011;22335;49.800;8.596;2023-05-07T16:39:03;5.57;;;5.18;;
36303;SDS011;22335;49.800;8.596;2023-05-07T16:45:46;7.10;;;5.10;;
36303;SDS011;22335;49.800;8.596;2023-05-07T16:52:30;5.80;;;5.10;;
36303;SDS011;22335;49.800;8.596;2023-05-07T16:59:15;7.25;;;6.55;;
36303;SDS011;22335;49.800;8.596;2023-05-07T17:05:59;6.90;;;6.30;;
36303;SDS011;22335;49.800;8.596;2023-05-07T17:12:42;6.45;;;5.95;;
36303;SDS011;22335;49.800;8.596;2023-05-07T17:19:27;6.50;;;6.00;;
36303;SDS011;22335;49.800;8.596;2023-05-07T17:26:10;22.55;;;6.35;;
36303;SDS011;22335;49.800;8.596;2023-05-07T17:32:54;6.03;;;5.60;;
36303;SDS011;22335;49.800;8.596;2023-05-07T17:39:43;5.95;;;5.45;;
36303;SDS011;22335;49.800;8.596;2023-05-07T17:46:27;6.13;;;5.57;;
36303;SDS011;22335;49.800;8.596;2023-05-07T17:53:10;6.07;;;5.57;;
36303;SDS011;22335;49.800;8.596;2023-05-07T17:59:56;5.90;;;5.32;;
36303;SDS011;22335;49.800;8.596;2023-05-07T18:06:39;4.80;;;4.40;;
36303;SDS011;22335;49.800;8.596;2023-05-07T18:13:23;5.20;;;4.80;;
36303;SDS011;22335;49.800;8.596;2023-05-07T18:20:08;5.43;;;4.95;;
36303;SDS011;22335;49.800;8.596;2023-05-07T18:33:35;6.57;;;4.68;;
36303;SDS011;22335;49.800;8.596;2023-05-07T18:40:20;5.32;;;4.93;;
36303;SDS011;22335;49.800;8.596;2023-05-07T18:47:04;5.85;;;5.35;;
36303;SDS011;22335;49.800;8.596;2023-05-07T18:53:48;6.00;;;5.15;;
36303;SDS011;22335;49.800;8.596;2023-05-07T19:00:33;6.43;;;5.75;;
36303;SDS011;22335;49.800;8.596;2023-05-07T19:07:16;8.55;;;5.90;;
36303;SDS011;22335;49.800;8.596;2023-05-07T19:13:59;6.55;;;5.30;;
36303;SDS011;22335;49.800;8.596;2023-05-07T19:20:46;6.30;;;5.75;;
36303;SDS011;22335;49.800;8.596;2023-05-07T19:27:31;5.53;;;5.05;;
36303;SDS011;22335;49.800;8.596;2023-05-07T19:34:14;6.75;;;6.25;;
36303;SDS011;22335;49.800;8.596;2023-05-07T19:40:59;7.00;;;5.40;;
36303;SDS011;22335;49.800;8.596;2023-05-07T19:47:42;6.30;;;5.80;;
36303;SDS011;22335;49.800;8.596;2023-05-07T19:54:27;6.45;;;5.80;;
36303;SDS011;22335;49.800;8.596;2023-05-07T20:01:12;6.60;;;6.00;;
36303;SDS011;22335;49.800;8.596;2023-05-07T20:07:55;6.95;;;6.35;;
36303;SDS011;22335;49.800;8.596;2023-05-07T20:14:40;7.07;;;6.28;;
36303;SDS011;22335;49.800;8.596;2023-05-07T20:21:25;7.20;;;6.50;;
36303;SDS011;22335;49.800;8.596;2023-05-07T20:28:08;6.85;;;6.25;;
36303;SDS011;22335;49.800;8.596;2023-05-07T20:34:52;7.95;;;6.28;;
36303;SDS011;22335;49.800;8.596;2023-05-07T20:41:39;6.95;;;6.22;;
36303;SDS011;22335;49.800;8.596;2023-05-07T20:48:22;7.95;;;7.18;;
36303;SDS011;22335;49.800;8.596;2023-05-07T20:55:11;7.38;;;6.82;;
36303;SDS011;22335;49.800;8.596;2023-05-07T21:01:56;7.75;;;7.07;;
36303;SDS011;22335;49.800;8.596;2023-05-07T21:08:40;8.15;;;7.35;;
36303;SDS011;22335;49.800;8.596;2023-05-07T21:15:23;9.50;;;8.50;;
36303;SDS011;22335;49.800;8.596;2023-05-07T21:22:08;9.70;;;8.70;;
36303;SDS011;22335;49.800;8.596;2023-05-07T21:28:52;10.10;;;9.30;;
36303;SDS011;22335;49.800;8.596;2023-05-07T21:35:35;9.98;;;9.07;;
36303;SDS011;22335;49.800;8.596;2023-05-07T21:42:22;9.03;;;8.27;;
36303;SDS011;22335;49.800;8.596;2023-05-07T21:49:05;10.68;;;9.60;;
36303;SDS011;22335;49.800;8.596;2023-05-07T21:55:49;9.73;;;8.80;;
36303;SDS011;22335;49.800;8.596;2023-05-07T22:02:35;10.75;;;9.75;;
36303;SDS011;22335;49.800;8.596;2023-05-07T22:09:18;10.67;;;9.50;;
36303;SDS011;22335;49.800;8.596;2023-05-07T22:16:02;10.35;;;9.45;;
36303;SDS011;22335;49.800;8.596;2023-05-07T22:22:48;12.07;;;10.98;;
36303;SDS011;22335;49.800;8.596;2023-05-07T22:29:33;11.90;;;10.90;;
36303;SDS011;22335;49.800;8.596;2023-05-07T22:36:16;13.02;;;12.02;;
36303;SDS011;22335;49.800;8.596;2023-05-07T22:43:01;12.98;;;11.85;;
36303;SDS011;22335;49.800;8.596;2023-05-07T22:49:45;12.82;;;11.57;;
36303;SDS011;22335;49.800;8.596;2023-05-07T22:56:28;12.77;;;11.68;;
36303;SDS011;22335;49.800;8.596;2023-05-07T23:03:13;12.93;;;11.82;;
36303;SDS011;22335;49.800;8.596;2023-05-07T23:09:56;12.52;;;11.52;;
36303;SDS011;22335;49.800;8.596;2023-05-07T23:16:39;12.55;;;11.60;;
36303;SDS011;22335;49.800;8.596;2023-05-07T23:23:24;12.35;;;11.15;;
36303;SDS011;22335;49.800;8.596;2023-05-07T23:30:13;10.30;;;9.50;;
36303;SDS011;22335;49.800;8.596;2023-05-07T23:36:57;11.15;;;10.25;;
36303;SDS011;22335;49.800;8.596;2023-05-07T23:43:42;10.65;;;9.82;;
36303;SDS011;22335;49.800;8.596;2023-05-07T23:50:26;10.47;;;9.63;;
36303;SDS011;22335;49.800;8.596;2023-05-07T23:57:09;10.45;;;9.55;;
